createdAt,value
2019-03-23T00:02:38.661Z,40.55
2019-03-23T00:07:43.393Z,39.95
2019-03-23T00:12:48.346Z,43.85
2019-03-23T00:17:53.108Z,44.00
2019-03-23T00:22:58.091Z,46.20
2019-03-23T00:28:02.821Z,41.50
2019-03-23T00:33:07.559Z,41.00
2019-03-23T00:38:12.289Z,42.33
2019-03-23T00:43:17.081Z,43.87
2019-03-23T00:48:21.905Z,45.05
2019-03-23T00:53:26.731Z,52.27
2019-03-23T00:58:31.512Z,42.60
2019-03-23T01:03:36.222Z,45.12
2019-03-23T01:08:40.941Z,44.03
2019-03-23T01:13:45.859Z,40.78
2019-03-23T01:18:50.565Z,42.75
2019-03-23T01:23:55.302Z,42.70
2019-03-23T01:29:00.045Z,40.95
2019-03-23T01:34:04.884Z,41.28
2019-03-23T01:39:09.700Z,42.20
2019-03-23T01:44:14.536Z,41.60
2019-03-23T01:49:19.252Z,41.85
2019-03-23T01:54:24.041Z,40.85
2019-03-23T01:59:28.824Z,41.50
2019-03-23T02:04:33.614Z,42.70
2019-03-23T02:09:38.420Z,40.33
2019-03-23T02:14:43.168Z,39.38
2019-03-23T02:19:47.884Z,41.48
2019-03-23T02:24:52.630Z,42.70
2019-03-23T02:29:57.415Z,43.05
2019-03-23T02:35:02.231Z,39.10
2019-03-23T02:40:08.237Z,38.63
2019-03-23T02:45:13.430Z,42.20
2019-03-23T02:50:18.155Z,42.88
2019-03-23T02:55:22.887Z,41.33
2019-03-23T03:00:27.789Z,37.28
2019-03-23T03:05:32.647Z,44.33
2019-03-23T03:10:39.707Z,44.50
2019-03-23T03:15:44.523Z,44.05
2019-03-23T03:20:49.257Z,42.17
2019-03-23T03:25:54.052Z,44.48
2019-03-23T03:30:58.818Z,44.13
2019-03-23T03:36:03.603Z,42.27
2019-03-23T03:41:08.330Z,39.18
2019-03-23T03:46:13.071Z,35.17
2019-03-23T03:51:17.791Z,17.80
2019-03-23T03:56:22.699Z,19.62
2019-03-23T04:01:27.431Z,19.57
2019-03-23T04:06:32.153Z,24.18
2019-03-23T04:11:36.885Z,23.12
2019-03-23T04:16:41.617Z,24.70
2019-03-23T04:21:46.322Z,27.02
2019-03-23T04:26:51.039Z,31.93
2019-03-23T04:31:55.817Z,38.67
2019-03-23T04:37:00.539Z,38.05
2019-03-23T04:42:05.361Z,39.03
2019-03-23T04:47:10.079Z,40.88
2019-03-23T04:52:14.908Z,44.63
2019-03-23T04:57:19.727Z,48.60
2019-03-23T05:02:24.468Z,56.60
2019-03-23T05:07:29.202Z,55.60
2019-03-23T05:12:34.023Z,65.28
2019-03-23T05:17:38.739Z,66.60
2019-03-23T05:22:43.463Z,86.87
2019-03-23T05:27:48.260Z,96.72
2019-03-23T05:32:53.020Z,100.20
2019-03-23T05:37:57.843Z,114.52
2019-03-23T05:43:03.934Z,130.50
2019-03-23T05:48:08.746Z,124.40
2019-03-23T05:53:14.597Z,127.70
2019-03-23T05:58:19.437Z,119.75
2019-03-23T06:03:24.193Z,112.17
2019-03-23T06:08:28.930Z,102.05
2019-03-23T06:13:33.648Z,93.70
2019-03-23T06:18:38.390Z,92.53
2019-03-23T06:23:43.086Z,84.27
2019-03-23T06:28:47.828Z,89.87
2019-03-23T06:33:52.613Z,88.07
2019-03-23T06:39:05.005Z,90.80
2019-03-23T06:44:03.786Z,98.00
2019-03-23T06:49:08.508Z,91.63
2019-03-23T06:54:13.698Z,94.85
2019-03-23T06:59:18.488Z,92.60
2019-03-23T07:04:23.240Z,100.55
2019-03-23T07:09:27.938Z,94.05
2019-03-23T07:14:32.681Z,102.32
2019-03-23T07:19:37.412Z,102.50
2019-03-23T07:24:42.138Z,103.65
2019-03-23T07:29:46.897Z,104.85
2019-03-23T07:34:51.633Z,100.80
2019-03-23T07:39:56.354Z,93.03
2019-03-23T07:45:01.066Z,97.33
2019-03-23T07:50:06.980Z,89.95
2019-03-23T07:55:13.378Z,85.80
2019-03-23T08:00:20.129Z,89.35
2019-03-23T08:05:24.845Z,84.92
2019-03-23T08:10:31.408Z,88.03
2019-03-23T08:15:36.656Z,84.75
2019-03-23T08:20:41.412Z,84.17
2019-03-23T08:25:46.122Z,92.50
2019-03-23T08:30:50.911Z,85.85
2019-03-23T08:35:55.621Z,84.07
2019-03-23T08:41:00.411Z,91.50
2019-03-23T08:46:05.221Z,89.20
2019-03-23T08:51:09.944Z,96.90
2019-03-23T08:56:14.677Z,90.25
2019-03-23T09:01:19.508Z,92.42
2019-03-23T09:06:25.704Z,91.20
2019-03-23T09:11:30.508Z,94.00
2019-03-23T09:16:35.261Z,91.55
2019-03-23T09:21:40.217Z,98.87
2019-03-23T09:26:45.038Z,102.00
2019-03-23T09:31:49.909Z,98.70
2019-03-23T09:36:54.672Z,98.30
2019-03-23T09:41:59.405Z,93.90
2019-03-23T09:47:04.219Z,99.60
2019-03-23T09:52:08.945Z,106.25
2019-03-23T09:57:13.754Z,111.00
2019-03-23T10:02:18.514Z,110.17
2019-03-23T10:07:23.335Z,115.75
2019-03-23T10:12:28.198Z,118.77
2019-03-23T10:17:33.117Z,107.60
2019-03-23T10:22:37.940Z,104.92
2019-03-23T10:27:42.770Z,104.70
2019-03-23T10:32:47.680Z,104.70
2019-03-23T10:37:52.588Z,97.65
2019-03-23T10:42:57.381Z,88.90
2019-03-23T10:48:02.202Z,91.22
2019-03-23T10:53:07.023Z,88.87
2019-03-23T10:58:11.768Z,92.00
2019-03-23T11:03:16.488Z,82.78
2019-03-23T11:08:21.428Z,87.12
2019-03-23T11:13:26.226Z,83.72
2019-03-23T11:18:31.064Z,93.33
2019-03-23T11:23:35.844Z,88.72
2019-03-23T11:28:40.728Z,86.42
2019-03-23T11:33:45.520Z,87.65
2019-03-23T11:38:50.255Z,72.87
2019-03-23T11:43:55.087Z,75.03
2019-03-23T11:48:59.796Z,72.53
2019-03-23T11:54:04.539Z,77.80
2019-03-23T11:59:09.305Z,75.00
2019-03-23T12:04:14.197Z,69.90
2019-03-23T12:09:19.004Z,70.12
2019-03-23T12:14:23.739Z,68.57
2019-03-23T12:19:28.558Z,69.05
2019-03-23T12:24:33.330Z,65.83
2019-03-23T12:29:38.087Z,68.00
2019-03-23T12:34:42.828Z,59.80
2019-03-23T12:39:47.645Z,63.08
2019-03-23T12:44:52.581Z,66.60
2019-03-23T12:49:57.427Z,60.85
2019-03-23T12:55:02.173Z,57.75
2019-03-23T13:00:08.745Z,57.20
2019-03-23T13:05:13.498Z,57.40
2019-03-23T13:10:18.311Z,53.50
2019-03-23T13:15:23.353Z,47.13
2019-03-23T13:20:28.274Z,51.35
2019-03-23T13:25:33.273Z,44.23
2019-03-23T13:30:38.076Z,43.45
2019-03-23T13:35:42.833Z,42.08
2019-03-23T13:40:47.609Z,43.65
2019-03-23T13:45:52.408Z,44.93
2019-03-23T13:50:57.154Z,45.28
2019-03-23T13:56:08.568Z,42.58
2019-03-23T14:01:13.500Z,41.65
2019-03-23T14:06:18.263Z,40.00
2019-03-23T14:11:22.988Z,42.48
2019-03-23T14:16:27.736Z,41.85
2019-03-23T14:21:32.557Z,43.83
2019-03-23T14:26:37.296Z,43.05
2019-03-23T14:31:42.069Z,47.30
2019-03-23T14:36:46.805Z,47.60
2019-03-23T14:41:51.615Z,47.10
2019-03-23T14:46:56.377Z,46.33
2019-03-23T14:52:01.169Z,48.65
2019-03-23T14:57:05.919Z,47.08
2019-03-23T15:02:10.644Z,47.08
2019-03-23T15:07:15.387Z,46.48
2019-03-23T15:12:20.149Z,50.43
2019-03-23T15:17:24.919Z,51.80
2019-03-23T15:22:29.718Z,56.20
2019-03-23T15:27:34.485Z,58.95
2019-03-23T15:32:39.250Z,53.75
2019-03-23T15:37:43.994Z,58.50
2019-03-23T15:42:48.987Z,56.75
2019-03-23T15:47:53.808Z,56.50
2019-03-23T15:52:58.635Z,59.15
2019-03-23T15:58:03.496Z,65.17
2019-03-23T16:03:08.350Z,56.83
2019-03-23T16:08:13.213Z,49.45
2019-03-23T16:13:18.209Z,50.88
2019-03-23T16:18:22.974Z,55.17
2019-03-23T16:23:27.736Z,50.55
2019-03-23T16:28:33.600Z,52.25
2019-03-23T16:33:38.344Z,55.40
2019-03-23T16:38:43.110Z,58.10
2019-03-23T16:43:47.906Z,57.93
2019-03-23T16:48:52.710Z,63.60
2019-03-23T16:53:57.504Z,59.85
2019-03-23T16:59:02.490Z,61.20
2019-03-23T17:04:07.339Z,63.50
2019-03-23T17:09:12.136Z,60.33
2019-03-23T17:14:16.883Z,60.63
2019-03-23T17:19:21.657Z,65.03
2019-03-23T17:24:26.491Z,70.75
2019-03-23T17:29:31.349Z,78.97
2019-03-23T17:34:36.178Z,74.35
2019-03-23T17:39:41.010Z,75.85
2019-03-23T17:44:46.285Z,75.72
2019-03-23T17:49:51.329Z,70.42
2019-03-23T17:55:05.310Z,60.43
2019-03-23T18:00:11.558Z,59.88
2019-03-23T18:05:16.388Z,52.15
2019-03-23T18:10:21.208Z,49.05
2019-03-23T18:15:25.944Z,47.13
2019-03-23T18:20:30.703Z,47.67
2019-03-23T18:25:35.622Z,48.23
2019-03-23T18:30:42.101Z,47.15
2019-03-23T18:35:46.840Z,46.92
2019-03-23T18:40:51.562Z,43.00
2019-03-23T18:45:56.305Z,39.78
2019-03-23T18:51:01.116Z,39.63
2019-03-23T18:56:06.011Z,36.17
2019-03-23T19:01:10.800Z,30.57
2019-03-23T19:06:15.565Z,33.48
2019-03-23T19:11:20.317Z,32.60
2019-03-23T19:16:25.045Z,35.23
2019-03-23T19:21:29.792Z,34.75
2019-03-23T19:26:34.547Z,34.27
2019-03-23T19:31:39.331Z,33.23
2019-03-23T19:36:44.169Z,27.20
2019-03-23T19:41:48.945Z,39.25
2019-03-23T19:46:53.785Z,40.05
2019-03-23T19:51:58.530Z,35.17
2019-03-23T19:57:03.415Z,34.53
2019-03-23T20:02:08.477Z,34.20
2019-03-23T20:07:13.219Z,36.53
2019-03-23T20:12:17.960Z,32.15
2019-03-23T20:17:22.717Z,31.37
2019-03-23T20:22:27.877Z,23.92
2019-03-23T20:27:32.649Z,23.80
2019-03-23T20:32:37.503Z,23.87
2019-03-23T20:37:42.381Z,24.52
2019-03-23T20:42:47.225Z,20.35
2019-03-23T20:47:52.000Z,20.20
2019-03-23T20:52:56.722Z,20.20
2019-03-23T20:58:01.677Z,20.08
2019-03-23T21:03:06.418Z,19.32
2019-03-23T21:08:11.260Z,20.80
2019-03-23T21:13:16.107Z,19.07
2019-03-23T21:18:20.855Z,20.90
2019-03-23T21:23:25.654Z,19.50
2019-03-23T21:28:30.521Z,20.12
2019-03-23T21:33:38.885Z,19.03
2019-03-23T21:38:41.767Z,20.37
2019-03-23T21:43:46.485Z,18.73
2019-03-23T21:48:50.443Z,20.25
2019-03-23T21:53:54.403Z,19.20
2019-03-23T21:58:58.460Z,18.37
2019-03-23T22:04:02.471Z,16.50
2019-03-23T22:09:07.085Z,18.77
2019-03-23T22:14:11.007Z,22.33
2019-03-23T22:19:15.021Z,21.00
2019-03-23T22:24:18.985Z,17.03
2019-03-23T22:29:23.010Z,15.67
2019-03-23T22:34:26.980Z,17.33
2019-03-23T22:39:31.000Z,15.10
2019-03-23T22:44:34.960Z,17.70
2019-03-23T22:49:39.020Z,17.37
2019-03-23T22:54:43.025Z,18.70
2019-03-23T22:59:47.170Z,18.83
2019-03-23T23:04:51.138Z,20.77
2019-03-23T23:09:55.133Z,18.10
2019-03-23T23:15:04.474Z,21.97
2019-03-23T23:20:05.249Z,18.83
2019-03-23T23:25:09.266Z,20.20
2019-03-23T23:30:13.517Z,14.33
2019-03-23T23:35:17.518Z,21.37
2019-03-23T23:40:21.437Z,19.47
2019-03-23T23:45:25.428Z,18.23
2019-03-23T23:50:29.405Z,20.50
2019-03-23T23:55:33.387Z,16.50
